Portada
METAR-TAF:

METAR-TAF

Aeropuertos :

Aeropuerto Internacional de Kuwait

Ciudad de Kuwait, Kuwait

latitud: 29-13N, longitud: 047-59E, altitud: 55 m

Observación

El informe se hizo hace 35 minutos, a las 01:00 UTC
Viento 16 kt del norte-noroeste
Temperatura 33°C
Humedad 23%
Presión 1003 hPa
Visibilidad 10 km o más
sin nubes por debajo de 1500 m y sin presencia de cumulonimbus.

METAR: OKBK 220100Z 34016KT CAVOK 33/09 Q1003 NOSIG

Hora: 04:35 (01:35 UTC)

Pronóstico

El informe se hizo hace 2 horas y 50 minutos, a las 22:45 UTC
Pronóstico válido del 22 a las 00 UTC al 23 a las 06 UTC
Viento 15 kt del norte-noroeste con ráfagas de 25 kt
Visibilidad: 6000 m
Cielo despejado
Temporalmente
del 22 a las 06 UTC al 22 a las 14 UTC
Visibilidad: 2000 m
Ventisca alta de polvo

TAF: OKBK 212245Z 2200/2306 34015G25KT 6000 SKC TEMPO 2206/2214 2000 BLDU

Observaciones y pronósticos meteorológicos de más de 4000 aeropuertos (mensajes METAR y TAF).

Los puntos amarillos y rojos representan las estaciones disponibles.

Ponga el ratón en el punto deseado para ver el nombre de la estación.

Haga clic para ver las observaciones y los pronósticos meteorológicos.

Para cambiar el mapa : haga clic en los botones verdes con una cruz de color negro para hacer un zoom, en el botón verde con un guión para alejar o en las flechas verdes para mapas adyacentes.


METAR-TAF: